Time;durP1;ratioP1;P1;durP2;ratioP2;P2;SDS_P1;SDS_P2;PMS_P1;PMS_P2;Temp;Humidity;BMP_temperature;BMP_pressure;BME280_temperature;BME280_humidity;BME280_pressure;Samples;Min_cycle;Max_cycle;Signal;HPM_P1;HPM_P2
2021/12/15 00:00:35;;;;;;;123.32;22.05;;;5.60;99.90;;;;;;5021688;28;20479;-63
2021/12/15 00:03:00;;;;;;;240.07;29.20;;;5.60;99.90;;;;;;5027464;28;20053;-64
2021/12/15 00:05:27;;;;;;;344.35;32.50;;;5.60;99.90;;;;;;5021209;28;20064;-64
2021/12/15 00:07:57;;;;;;;296.42;27.95;;;5.60;99.90;;;;;;5019353;28;20315;-63
2021/12/15 00:10:23;;;;;;;498.70;36.88;;;5.50;99.90;;;;;;5014969;28;20030;-64
2021/12/15 00:12:49;;;;;;;360.58;33.95;;;5.50;99.90;;;;;;5024654;28;20096;-63
2021/12/15 00:15:18;;;;;;;247.60;29.02;;;5.50;99.90;;;;;;5021671;28;20382;-64
2021/12/15 00:17:44;;;;;;;252.90;28.70;;;5.40;99.90;;;;;;5020081;28;20025;-64
2021/12/15 00:20:14;;;;;;;292.45;30.48;;;5.40;99.90;;;;;;5021903;28;20113;-63
2021/12/15 00:22:40;;;;;;;306.60;30.85;;;5.40;99.90;;;;;;5018594;28;20080;-64
2021/12/15 00:25:08;;;;;;;233.70;27.35;;;5.40;99.90;;;;;;5017594;28;20030;-64
2021/12/15 00:27:33;;;;;;;471.90;38.85;;;5.40;99.90;;;;;;5020321;28;20026;-64
2021/12/15 00:29:59;;;;;;;514.72;39.35;;;5.40;99.90;;;;;;5020092;28;20040;-65
2021/12/15 00:32:25;;;;;;;376.20;33.58;;;5.40;99.90;;;;;;5020886;28;20030;-63
2021/12/15 00:34:51;;;;;;;390.25;34.65;;;5.40;99.90;;;;;;5019509;28;20022;-64
2021/12/15 00:37:19;;;;;;;219.73;30.85;;;5.40;99.90;;;;;;5020085;28;20030;-63
2021/12/15 00:39:44;;;;;;;121.13;25.20;;;5.40;99.90;;;;;;5021776;28;20032;-63
2021/12/15 00:42:10;;;;;;;119.50;25.75;;;5.30;99.90;;;;;;5017989;28;20026;-63
2021/12/15 00:44:37;;;;;;;129.50;26.55;;;5.30;99.90;;;;;;5022524;28;20151;-64
2021/12/15 00:47:03;;;;;;;168.85;26.65;;;5.30;99.90;;;;;;5019547;28;20035;-63
2021/12/15 00:49:29;;;;;;;136.23;25.58;;;5.40;99.90;;;;;;5015011;28;20032;-63
2021/12/15 00:51:55;;;;;;;284.15;31.17;;;5.40;99.90;;;;;;5014824;28;20034;-64
2021/12/15 00:54:22;;;;;;;379.98;32.78;;;5.40;99.90;;;;;;5021381;28;20050;-63
2021/12/15 00:56:50;;;;;;;140.05;25.65;;;5.40;99.90;;;;;;5016553;28;20100;-64
2021/12/15 00:59:16;;;;;;;140.07;26.10;;;5.40;99.90;;;;;;5021573;28;20079;-63
2021/12/15 01:01:42;;;;;;;122.72;25.33;;;5.40;99.90;;;;;;5020809;28;20436;-64
2021/12/15 01:04:11;;;;;;;291.38;27.67;;;5.40;99.90;;;;;;5016949;28;20487;-64
2021/12/15 01:06:39;;;;;;;222.98;24.75;;;5.40;99.90;;;;;;5021222;28;20033;-63
2021/12/15 01:09:11;;;;;;;271.42;27.13;;;5.40;99.90;;;;;;5021146;28;20024;-64
2021/12/15 01:14:33;;;;;;;286.88;28.27;;;5.40;99.90;;;;;;5019940;28;20124;-63
2021/12/15 01:22:17;;;;;;;397.90;28.38;;;5.50;99.90;;;;;;5018170;28;20087;-64
2021/12/15 01:24:43;;;;;;;389.27;28.20;;;5.50;99.90;;;;;;5016607;28;20033;-64
2021/12/15 01:27:09;;;;;;;232.07;23.30;;;5.50;99.90;;;;;;5014855;28;20101;-65
2021/12/15 01:29:35;;;;;;;332.85;27.63;;;5.50;99.90;;;;;;5014466;28;20025;-63
2021/12/15 01:32:01;;;;;;;362.75;28.13;;;5.50;99.90;;;;;;5021063;28;20466;-64
2021/12/15 01:34:27;;;;;;;356.30;28.08;;;5.50;99.90;;;;;;5016677;28;20034;-64
2021/12/15 01:36:53;;;;;;;201.38;21.08;;;5.50;99.90;;;;;;5019680;28;20095;-64
2021/12/15 01:39:19;;;;;;;152.38;21.67;;;5.50;99.90;;;;;;5016535;28;20053;-64
2021/12/15 01:41:45;;;;;;;182.85;23.23;;;5.50;99.90;;;;;;5017123;28;20113;-65
2021/12/15 01:46:59;;;;;;;478.65;31.38;;;5.50;99.90;;;;;;5018897;28;20029;-64
2021/12/15 01:49:38;;;;;;;271.70;23.38;;;5.50;99.90;;;;;;5012761;28;20034;-63
2021/12/15 01:52:16;;;;;;;169.25;22.63;;;5.60;99.90;;;;;;5012047;28;20065;-63
2021/12/15 01:54:46;;;;;;;124.28;19.90;;;5.60;99.90;;;;;;5015584;28;20050;-64
2021/12/15 01:57:14;;;;;;;168.98;21.45;;;5.60;99.90;;;;;;5017483;28;20033;-64
2021/12/15 01:59:41;;;;;;;219.85;22.70;;;5.60;99.90;;;;;;5017150;28;20087;-64
2021/12/15 02:02:07;;;;;;;154.90;20.33;;;5.60;99.90;;;;;;5014056;28;20030;-63
2021/12/15 02:04:34;;;;;;;173.27;22.38;;;5.60;99.90;;;;;;5016526;28;20030;-64
2021/12/15 02:07:02;;;;;;;146.70;21.15;;;5.60;99.90;;;;;;5018345;28;20108;-64
2021/12/15 02:12:16;;;;;;;391.17;29.05;;;5.60;99.90;;;;;;5018745;28;20117;-64
2021/12/15 02:14:42;;;;;;;132.77;19.63;;;5.60;99.90;;;;;;5019597;28;20017;-64
2021/12/15 02:17:08;;;;;;;275.80;24.10;;;5.50;99.90;;;;;;5014789;28;20188;-65
2021/12/15 02:19:33;;;;;;;271.70;24.48;;;5.50;99.90;;;;;;5015727;28;20079;-64
2021/12/15 02:21:59;;;;;;;94.15;16.98;;;5.50;99.90;;;;;;5016394;28;20084;-64
2021/12/15 02:24:26;;;;;;;288.27;26.92;;;5.50;99.90;;;;;;5016432;28;20105;-63
2021/12/15 02:26:58;;;;;;;306.35;25.25;;;5.60;99.90;;;;;;5014899;28;20076;-64
2021/12/15 02:29:24;;;;;;;191.02;21.05;;;5.60;99.90;;;;;;5016396;28;20143;-64
2021/12/15 02:39:30;;;;;;;220.10;17.92;;;5.60;99.90;;;;;;5018923;28;20018;-64
2021/12/15 02:41:56;;;;;;;290.50;22.05;;;5.60;99.90;;;;;;5015295;28;20021;-64
2021/12/15 02:44:23;;;;;;;171.07;17.58;;;5.60;99.90;;;;;;5019805;28;20026;-64
2021/12/15 02:46:50;;;;;;;218.93;20.65;;;5.60;99.90;;;;;;5019315;28;20080;-64
2021/12/15 02:49:19;;;;;;;186.50;19.40;;;5.60;99.90;;;;;;5017208;28;20591;-64
2021/12/15 02:51:48;;;;;;;213.48;19.23;;;5.60;99.90;;;;;;5017208;28;20047;-64
2021/12/15 02:54:15;;;;;;;307.73;22.40;;;5.60;99.90;;;;;;5017038;28;20034;-63
2021/12/15 02:56:42;;;;;;;130.90;18.27;;;5.60;99.90;;;;;;5012383;28;20050;-64
2021/12/15 02:59:11;;;;;;;318.08;28.38;;;5.60;99.90;;;;;;5012961;28;20783;-63
2021/12/15 03:02:01;;;;;;;352.80;26.52;;;5.50;99.90;;;;;;5021620;28;20068;-64
2021/12/15 03:04:37;;;;;;;50.63;20.45;;;5.50;99.90;;;;;;5017459;28;20397;-64
2021/12/15 03:07:23;;;;;;;76.68;21.95;;;5.50;99.90;;;;;;5017906;28;20025;-65
2021/12/15 03:15:29;;;;;;;55.65;22.40;;;5.60;99.90;;;;;;5014853;28;20436;-64
2021/12/15 03:17:58;;;;;;;49.03;20.02;;;5.60;99.90;;;;;;5016373;28;20472;-63
2021/12/15 03:20:27;;;;;;;54.03;20.92;;;5.60;99.90;;;;;;5018787;28;20536;-63
2021/12/15 03:22:53;;;;;;;60.72;20.85;;;5.60;99.90;;;;;;5015215;28;20032;-64
2021/12/15 03:25:19;;;;;;;52.15;21.52;;;5.60;99.90;;;;;;5015965;28;20117;-62
2021/12/15 03:33:37;;;;;;;50.67;20.67;;;5.50;99.90;;;;;;5019519;28;20037;-62
2021/12/15 03:36:11;;;;;;;43.40;19.58;;;5.50;99.90;;;;;;5017985;28;20092;-63
2021/12/15 03:38:37;;;;;;;41.35;20.25;;;5.60;99.90;;;;;;5020651;28;20018;-63
2021/12/15 03:41:07;;;;;;;41.60;19.08;;;5.60;99.90;;;;;;5014889;28;20026;-62
2021/12/15 03:43:34;;;;;;;38.58;18.13;;;5.60;99.90;;;;;;5017892;28;20022;-62
2021/12/15 03:46:12;;;;;;;46.13;19.98;;;5.60;99.90;;;;;;5014661;28;20084;-63
2021/12/15 03:48:42;;;;;;;39.92;19.48;;;5.60;99.90;;;;;;5015589;28;20053;-62
2021/12/15 03:51:08;;;;;;;39.67;19.80;;;5.60;99.90;;;;;;5017560;28;20120;-62
2021/12/15 03:53:34;;;;;;;38.10;19.90;;;5.60;99.90;;;;;;5018790;28;20113;-62
2021/12/15 03:56:01;;;;;;;32.55;18.60;;;5.60;99.90;;;;;;5015739;28;20032;-63
2021/12/15 03:58:27;;;;;;;32.55;19.08;;;5.60;99.90;;;;;;5018587;28;20105;-62
2021/12/15 04:01:00;;;;;;;36.67;17.92;;;5.60;99.90;;;;;;5018133;28;20104;-62
2021/12/15 04:03:35;;;;;;;37.50;18.40;;;5.60;99.90;;;;;;5015606;28;20025;-62
2021/12/15 04:06:04;;;;;;;40.95;18.73;;;5.60;99.90;;;;;;5019543;28;20033;-62
2021/12/15 04:08:30;;;;;;;35.38;17.77;;;5.60;99.90;;;;;;5021499;28;20484;-62
2021/12/15 04:10:58;;;;;;;33.38;18.02;;;5.60;99.90;;;;;;5016495;28;20025;-63
2021/12/15 04:13:23;;;;;;;38.85;16.85;;;5.60;99.90;;;;;;5012656;28;20521;-62
2021/12/15 04:16:03;;;;;;;33.92;17.80;;;5.60;99.90;;;;;;5020004;28;20040;-63
2021/12/15 04:18:29;;;;;;;31.80;16.95;;;5.60;99.90;;;;;;5018539;28;20034;-62
2021/12/15 04:20:55;;;;;;;29.10;15.98;;;5.60;99.90;;;;;;5020726;28;20022;-62
2021/12/15 04:23:21;;;;;;;31.85;15.75;;;5.60;99.90;;;;;;5018889;28;20022;-63
2021/12/15 04:25:50;;;;;;;29.70;16.25;;;5.60;99.90;;;;;;5018312;28;20029;-62
2021/12/15 04:28:20;;;;;;;25.30;14.88;;;5.60;99.90;;;;;;5018685;28;20038;-62
2021/12/15 04:30:52;;;;;;;27.25;15.25;;;5.60;99.90;;;;;;5019326;28;20061;-62
2021/12/15 04:33:24;;;;;;;23.02;13.70;;;5.70;99.90;;;;;;5018396;28;20026;-63
2021/12/15 04:35:53;;;;;;;23.55;13.45;;;5.60;99.90;;;;;;5020877;28;20025;-62
2021/12/15 04:38:20;;;;;;;25.27;15.05;;;5.70;99.90;;;;;;5010493;28;20040;-63
2021/12/15 04:40:46;;;;;;;22.73;13.55;;;5.70;99.90;;;;;;5019068;28;20057;-62
2021/12/15 04:43:12;;;;;;;22.63;14.25;;;5.60;99.90;;;;;;5021240;28;20076;-63
2021/12/15 04:45:38;;;;;;;22.92;15.07;;;5.60;99.90;;;;;;5015869;28;20543;-63
2021/12/15 04:48:06;;;;;;;27.80;14.77;;;5.60;99.90;;;;;;5016928;28;20022;-62
2021/12/15 04:50:33;;;;;;;22.15;13.48;;;5.50;99.90;;;;;;5018761;28;20030;-63
2021/12/15 04:53:02;;;;;;;22.65;14.00;;;5.50;99.90;;;;;;5019303;28;20036;-62
2021/12/15 04:55:30;;;;;;;17.85;13.10;;;5.50;99.90;;;;;;5018615;28;20025;-62
2021/12/15 04:57:57;;;;;;;18.73;12.20;;;5.50;99.90;;;;;;5021649;28;20022;-62
2021/12/15 05:00:28;;;;;;;15.90;11.80;;;5.50;99.90;;;;;;5019285;28;20101;-62
2021/12/15 05:02:54;;;;;;;16.30;11.93;;;5.50;99.90;;;;;;5018738;28;20029;-62
2021/12/15 05:05:21;;;;;;;17.33;10.93;;;5.50;99.90;;;;;;5017555;28;20038;-62
2021/12/15 05:07:49;;;;;;;14.32;10.73;;;5.40;99.90;;;;;;5016126;28;20133;-62
2021/12/15 05:10:16;;;;;;;12.05;9.73;;;5.40;99.90;;;;;;5014181;28;20699;-63
2021/12/15 05:12:43;;;;;;;13.90;10.05;;;5.40;99.90;;;;;;5018602;28;20041;-62
2021/12/15 05:15:09;;;;;;;13.23;10.35;;;5.40;99.90;;;;;;5019920;28;20025;-62
2021/12/15 05:17:35;;;;;;;15.95;12.05;;;5.40;99.90;;;;;;5021606;28;20059;-62
2021/12/15 05:20:04;;;;;;;15.30;10.88;;;5.40;99.90;;;;;;5016450;28;20077;-62
2021/12/15 05:22:32;;;;;;;17.83;11.20;;;5.30;99.90;;;;;;5018796;28;20120;-62
2021/12/15 05:24:58;;;;;;;15.13;11.27;;;5.30;99.90;;;;;;5021186;28;20030;-62
2021/12/15 05:27:24;;;;;;;14.85;12.13;;;5.30;99.90;;;;;;5021229;28;20030;-62
2021/12/15 05:29:50;;;;;;;14.88;12.35;;;5.20;99.90;;;;;;5022731;28;20105;-63
2021/12/15 05:32:18;;;;;;;17.00;11.90;;;5.20;99.90;;;;;;5017512;28;20045;-62
2021/12/15 05:34:46;;;;;;;23.27;12.95;;;5.20;99.90;;;;;;5023446;28;20395;-63
2021/12/15 05:37:12;;;;;;;20.70;13.20;;;5.20;99.90;;;;;;5018482;28;20034;-63
2021/12/15 05:39:39;;;;;;;25.65;13.93;;;5.20;99.90;;;;;;5020352;28;20109;-62
2021/12/15 05:42:05;;;;;;;28.27;15.13;;;5.10;99.90;;;;;;5024559;28;20028;-62
2021/12/15 05:44:32;;;;;;;30.70;15.05;;;5.10;99.90;;;;;;5022449;28;20041;-62
2021/12/15 05:47:00;;;;;;;27.48;15.27;;;5.10;99.90;;;;;;5016100;28;20113;-62
2021/12/15 05:49:26;;;;;;;28.92;14.65;;;5.10;99.90;;;;;;5018596;28;20025;-62
2021/12/15 05:51:52;;;;;;;35.65;15.73;;;5.10;99.90;;;;;;5019360;28;20025;-62
2021/12/15 05:54:18;;;;;;;31.92;17.02;;;5.10;99.90;;;;;;5017098;28;20022;-62
2021/12/15 05:56:45;;;;;;;37.63;17.15;;;5.10;99.90;;;;;;5018835;28;20071;-62
2021/12/15 05:59:10;;;;;;;36.58;16.17;;;5.10;99.90;;;;;;5021561;28;20063;-62
2021/12/15 06:01:37;;;;;;;28.92;16.48;;;5.10;99.90;;;;;;5020225;28;20500;-63
2021/12/15 06:04:06;;;;;;;33.53;17.08;;;5.10;99.90;;;;;;5016103;28;20026;-62
2021/12/15 06:06:32;;;;;;;39.28;17.75;;;5.10;99.90;;;;;;5010439;28;20030;-62
2021/12/15 06:08:58;;;;;;;41.83;18.05;;;5.10;99.90;;;;;;5017922;28;20064;-62
2021/12/15 06:11:24;;;;;;;36.65;17.40;;;5.10;99.90;;;;;;5016951;28;20159;-62
2021/12/15 06:13:50;;;;;;;42.95;18.40;;;5.10;99.90;;;;;;5012389;28;20116;-62
2021/12/15 06:16:18;;;;;;;50.60;18.48;;;5.10;99.90;;;;;;5015129;28;20030;-63
2021/12/15 06:18:45;;;;;;;46.30;17.95;;;5.10;99.90;;;;;;5015056;28;20061;-62
2021/12/15 06:21:10;;;;;;;42.72;18.27;;;5.10;99.90;;;;;;5016552;28;20603;-62
2021/12/15 06:23:37;;;;;;;39.53;18.40;;;5.10;99.90;;;;;;5016317;28;20119;-62
2021/12/15 06:26:05;;;;;;;40.10;17.45;;;5.20;99.90;;;;;;5013448;28;20030;-63
2021/12/15 06:28:31;;;;;;;49.47;18.67;;;5.10;99.90;;;;;;5014550;28;20494;-62
2021/12/15 06:31:00;;;;;;;50.65;19.80;;;5.10;99.90;;;;;;5018898;28;20034;-62
2021/12/15 06:33:27;;;;;;;53.58;20.27;;;5.10;99.90;;;;;;5016424;28;20026;-63
2021/12/15 06:35:56;;;;;;;42.70;20.02;;;5.10;99.90;;;;;;5019385;28;20473;-63
2021/12/15 06:38:24;;;;;;;47.08;20.60;;;5.20;99.90;;;;;;5013266;28;20044;-62
2021/12/15 06:40:51;;;;;;;61.38;25.45;;;5.10;99.90;;;;;;5019603;28;20144;-62
2021/12/15 06:43:17;;;;;;;47.75;21.40;;;5.20;99.90;;;;;;5015616;28;20037;-62
2021/12/15 06:59:42;;;;;;;61.03;21.85;;;5.10;99.90;;;;;;5015514;28;20576;-63
2021/12/15 07:02:08;;;;;;;55.50;22.90;;;5.10;99.90;;;;;;5019887;28;20409;-62
2021/12/15 07:04:33;;;;;;;58.20;20.88;;;5.10;99.90;;;;;;5019252;28;20508;-62
2021/12/15 07:06:59;;;;;;;65.10;23.42;;;5.10;99.90;;;;;;5018383;28;20026;-62
2021/12/15 07:09:25;;;;;;;61.65;23.92;;;5.10;99.90;;;;;;5017128;28;20447;-62
2021/12/15 07:11:52;;;;;;;63.22;22.88;;;5.10;99.90;;;;;;5021593;28;20026;-62
2021/12/15 07:14:19;;;;;;;66.35;23.38;;;5.10;99.90;;;;;;5017551;28;20069;-63
2021/12/15 07:16:47;;;;;;;66.65;25.23;;;5.10;99.90;;;;;;5015461;28;20454;-62
2021/12/15 07:22:08;;;;;;;;;;;5.10;99.90;;;;;;5017373;28;20026;-62
2021/12/15 07:24:36;;;;;;;67.97;22.38;;;5.10;99.90;;;;;;5016601;28;19920;-62
2021/12/15 07:27:03;;;;;;;85.80;24.52;;;5.10;99.90;;;;;;5016619;28;20025;-62
2021/12/15 07:29:30;;;;;;;74.57;24.15;;;5.10;99.90;;;;;;5014420;28;20029;-62
2021/12/15 07:31:57;;;;;;;69.95;22.92;;;5.10;99.90;;;;;;5017658;28;20099;-62
2021/12/15 07:34:23;;;;;;;62.42;21.98;;;5.20;99.90;;;;;;5018274;28;20084;-62
2021/12/15 07:36:49;;;;;;;57.25;22.98;;;5.20;99.90;;;;;;5019567;28;20029;-62
2021/12/15 07:39:15;;;;;;;62.25;22.42;;;5.20;99.90;;;;;;5019105;28;20051;-62
2021/12/15 07:41:50;;;;;;;68.88;24.35;;;5.20;99.90;;;;;;5020096;28;20540;-62
2021/12/15 07:44:18;;;;;;;65.20;21.75;;;5.20;99.90;;;;;;5021637;28;20059;-62
2021/12/15 07:46:45;;;;;;;60.13;21.50;;;5.20;99.90;;;;;;5020069;28;20018;-62
2021/12/15 07:49:12;;;;;;;59.83;21.13;;;5.20;99.90;;;;;;5020496;28;20033;-63
2021/12/15 07:51:41;;;;;;;80.32;22.33;;;5.20;99.90;;;;;;5022826;28;20029;-62
2021/12/15 07:54:07;;;;;;;68.70;21.25;;;5.20;99.90;;;;;;5023607;28;20065;-62
2021/12/15 07:56:33;;;;;;;56.38;19.80;;;5.30;99.90;;;;;;5000471;28;20041;-62
2021/12/15 07:58:59;;;;;;;58.13;20.08;;;5.30;99.90;;;;;;5020484;28;20025;-62
2021/12/15 08:01:24;;;;;;;55.67;18.63;;;5.30;99.90;;;;;;5020194;28;20022;-62
2021/12/15 08:03:54;;;;;;;41.80;17.10;;;5.30;99.90;;;;;;5019125;28;20052;-62
2021/12/15 08:06:24;;;;;;;39.47;16.83;;;5.30;99.90;;;;;;5020388;28;20098;-62
2021/12/15 08:08:51;;;;;;;53.63;17.90;;;5.30;99.90;;;;;;5021527;28;20045;-62
2021/12/15 08:11:17;;;;;;;45.92;16.85;;;5.30;99.90;;;;;;5018930;28;20037;-62
2021/12/15 08:13:43;;;;;;;40.08;16.48;;;5.40;99.90;;;;;;5023818;28;20033;-62
2021/12/15 08:16:09;;;;;;;41.38;16.60;;;5.40;99.90;;;;;;5017673;28;20029;-62
2021/12/15 08:18:35;;;;;;;41.63;17.15;;;5.40;99.90;;;;;;5018627;28;20033;-62
2021/12/15 08:21:04;;;;;;;43.03;16.17;;;5.40;99.90;;;;;;5021344;28;20465;-62
2021/12/15 08:23:31;;;;;;;47.17;17.45;;;5.50;99.90;;;;;;5020012;28;20029;-62
2021/12/15 08:25:58;;;;;;;50.78;16.23;;;5.50;99.90;;;;;;5018187;28;20055;-62
2021/12/15 08:28:24;;;;;;;51.60;16.00;;;5.50;99.90;;;;;;5018354;28;20034;-62
2021/12/15 08:30:51;;;;;;;43.80;16.73;;;5.50;99.90;;;;;;5017416;28;20025;-62
2021/12/15 08:33:20;;;;;;;36.40;16.38;;;5.50;99.90;;;;;;5020003;28;20104;-62
2021/12/15 08:35:50;;;;;;;41.13;16.83;;;5.60;99.90;;;;;;5020904;28;20033;-63
2021/12/15 08:38:17;;;;;;;31.92;13.63;;;5.60;99.90;;;;;;5020974;28;20021;-62
2021/12/15 08:40:44;;;;;;;37.17;16.85;;;5.60;99.90;;;;;;5019767;28;20029;-62
2021/12/15 08:43:11;;;;;;;31.55;15.65;;;5.70;99.90;;;;;;5022003;28;20045;-62
2021/12/15 08:45:40;;;;;;;29.75;15.63;;;5.70;99.90;;;;;;5018800;28;20061;-62
2021/12/15 08:48:07;;;;;;;24.38;13.13;;;5.70;99.90;;;;;;5022761;28;20057;-62
2021/12/15 08:50:36;;;;;;;30.17;14.45;;;5.80;99.90;;;;;;5016044;28;20950;-62
2021/12/15 08:53:04;;;;;;;22.05;12.95;;;5.80;99.90;;;;;;5015142;28;20076;-62
2021/12/15 08:55:31;;;;;;;26.80;14.65;;;5.80;99.90;;;;;;5020371;28;20088;-63
2021/12/15 08:57:59;;;;;;;21.98;13.25;;;5.80;99.90;;;;;;5019998;28;20112;-62
2021/12/15 09:00:26;;;;;;;25.70;12.38;;;5.80;99.90;;;;;;5020684;28;20452;-62
2021/12/15 09:02:54;;;;;;;26.13;14.15;;;5.90;99.90;;;;;;5019941;28;20481;-63
2021/12/15 09:05:22;;;;;;;18.45;11.90;;;5.90;99.90;;;;;;5001822;28;20066;-62
2021/12/15 09:07:55;;;;;;;23.48;12.27;;;5.90;99.90;;;;;;5019530;28;20084;-63
2021/12/15 09:10:23;;;;;;;21.48;12.65;;;6.00;99.90;;;;;;5016592;28;20034;-62
2021/12/15 09:12:49;;;;;;;22.80;12.32;;;6.00;99.90;;;;;;5019434;28;20107;-62
2021/12/15 09:15:16;;;;;;;19.92;12.48;;;6.10;99.90;;;;;;5021091;28;20481;-62
2021/12/15 09:17:42;;;;;;;18.65;12.10;;;6.10;99.90;;;;;;5020170;28;20022;-62
2021/12/15 09:20:11;;;;;;;19.20;11.75;;;6.10;99.90;;;;;;5017978;28;20088;-62
2021/12/15 09:22:38;;;;;;;22.98;12.73;;;6.10;99.90;;;;;;5025993;28;20437;-62
2021/12/15 09:25:09;;;;;;;21.25;12.77;;;6.10;99.90;;;;;;5013238;28;20022;-62
2021/12/15 09:27:36;;;;;;;17.65;11.95;;;6.10;99.90;;;;;;5024890;28;20040;-62
2021/12/15 09:30:06;;;;;;;25.67;12.63;;;6.20;99.90;;;;;;5019960;28;20021;-62
2021/12/15 09:32:32;;;;;;;18.67;13.00;;;6.20;99.90;;;;;;5017204;28;20125;-63
2021/12/15 09:34:58;;;;;;;16.90;11.65;;;6.20;99.90;;;;;;5022846;28;20049;-63
2021/12/15 09:37:24;;;;;;;16.50;11.52;;;6.20;99.90;;;;;;5017765;28;20095;-63
2021/12/15 09:39:50;;;;;;;12.27;10.82;;;6.30;99.90;;;;;;5019415;28;20037;-62
2021/12/15 09:42:20;;;;;;;16.80;10.85;;;6.30;99.90;;;;;;5019598;28;20117;-63
2021/12/15 09:44:49;;;;;;;19.38;12.43;;;6.30;99.90;;;;;;5019924;28;20428;-62
2021/12/15 09:47:36;;;;;;;15.80;11.80;;;6.30;99.90;;;;;;5018106;28;20037;-62
2021/12/15 10:07:16;;;;;;;15.88;11.73;;;6.70;99.90;;;;;;5009302;28;20032;-62
2021/12/15 10:20:28;;;;;;;13.32;11.57;;;6.90;99.90;;;;;;5020694;28;20675;-63
2021/12/15 10:23:00;;;;;;;14.68;11.35;;;6.90;99.90;;;;;;5019464;28;20499;-62
2021/12/15 10:25:49;;;;;;;14.32;10.90;;;6.90;99.90;;;;;;5017524;28;20033;-62
2021/12/15 10:28:19;;;;;;;14.45;11.18;;;6.90;99.90;;;;;;5020275;28;20048;-62
2021/12/15 10:31:01;;;;;;;11.82;10.55;;;6.90;99.90;;;;;;5014108;28;20046;-63
2021/12/15 10:33:35;;;;;;;13.48;11.43;;;6.80;99.90;;;;;;5019961;28;20026;-62
2021/12/15 10:36:05;;;;;;;18.30;12.55;;;6.80;99.90;;;;;;5017440;28;20106;-63
2021/12/15 10:38:53;;;;;;;15.90;11.15;;;6.80;99.90;;;;;;5016452;28;20026;-62
2021/12/15 10:41:22;;;;;;;16.55;10.55;;;6.80;99.90;;;;;;5016857;28;20089;-63
2021/12/15 10:43:58;;;;;;;16.38;12.02;;;6.80;99.90;;;;;;5010881;28;20070;-63
2021/12/15 10:46:31;;;;;;;16.98;12.43;;;6.80;99.90;;;;;;5018956;28;20037;-63
2021/12/15 10:49:01;;;;;;;13.52;11.63;;;6.80;99.90;;;;;;5015836;28;20030;-62
2021/12/15 10:51:49;;;;;;;15.90;12.38;;;6.90;99.90;;;;;;5014638;28;20030;-62
2021/12/15 10:54:30;;;;;;;15.95;12.50;;;6.90;99.90;;;;;;5017479;28;20056;-63
2021/12/15 10:57:00;;;;;;;;;;;7.00;99.90;;;;;;5014118;28;20050;-63
2021/12/15 10:59:30;;;;;;;13.85;11.80;;;7.00;99.90;;;;;;5014634;28;19944;-62
2021/12/15 11:02:09;;;;;;;15.73;11.65;;;7.10;99.90;;;;;;5014680;28;20026;-62
2021/12/15 11:04:45;;;;;;;14.60;12.32;;;7.10;99.90;;;;;;5016826;28;20034;-62
2021/12/15 11:07:14;;;;;;;17.55;11.30;;;7.10;99.90;;;;;;5018254;28;20029;-63
2021/12/15 11:09:48;;;;;;;13.35;11.13;;;7.10;99.90;;;;;;5021021;28;20017;-62
2021/12/15 11:12:22;;;;;;;15.88;12.45;;;7.20;99.90;;;;;;5017115;28;20042;-62
2021/12/15 11:14:52;;;;;;;13.65;11.50;;;7.20;99.90;;;;;;5024788;28;20017;-63
2021/12/15 11:17:26;;;;;;;17.35;12.52;;;7.20;99.90;;;;;;5023436;28;20033;-63
2021/12/15 11:20:03;;;;;;;19.73;13.32;;;7.20;99.90;;;;;;5022491;28;20026;-62
2021/12/15 11:22:44;;;;;;;16.02;13.43;;;7.20;99.90;;;;;;5019793;28;20505;-63
2021/12/15 11:25:27;;;;;;;16.40;12.70;;;7.20;99.90;;;;;;5018928;28;20030;-63
2021/12/15 11:28:34;;;;;;;15.68;12.52;;;7.20;99.90;;;;;;5018974;28;20030;-62
2021/12/15 11:31:07;;;;;;;15.82;12.60;;;7.30;99.90;;;;;;5009435;28;20022;-62
2021/12/15 11:33:52;;;;;;;16.30;12.30;;;7.20;99.90;;;;;;5016180;28;20043;-62
2021/12/15 11:36:25;;;;;;;16.67;13.10;;;7.30;99.90;;;;;;5019509;28;20084;-62
2021/12/15 11:39:03;;;;;;;15.23;12.60;;;7.30;99.90;;;;;;5024483;28;20021;-62
2021/12/15 11:41:38;;;;;;;15.70;11.55;;;7.30;99.90;;;;;;5005403;28;20729;-62
2021/12/15 11:44:09;;;;;;;14.95;11.85;;;7.30;99.90;;;;;;5021089;28;20033;-63
2021/12/15 11:46:48;;;;;;;14.13;12.00;;;7.40;99.90;;;;;;5020863;28;20160;-62
2021/12/15 11:49:20;;;;;;;13.75;11.98;;;7.40;99.90;;;;;;5016264;28;20026;-62
2021/12/15 11:52:01;;;;;;;13.77;12.27;;;7.50;99.90;;;;;;5017215;28;20033;-62
2021/12/15 11:54:30;;;;;;;13.68;10.52;;;7.50;99.90;;;;;;5022172;28;20034;-62
2021/12/15 11:57:04;;;;;;;13.13;10.25;;;7.50;99.90;;;;;;5019145;28;20155;-62
2021/12/15 11:59:32;;;;;;;13.25;10.00;;;7.50;99.90;;;;;;5018390;28;20025;-63
2021/12/15 12:02:30;;;;;;;13.45;9.52;;;7.60;99.90;;;;;;5016194;28;20037;-63
2021/12/15 12:05:06;;;;;;;14.32;9.85;;;7.60;99.90;;;;;;5016921;28;20030;-62
2021/12/15 12:07:34;;;;;;;12.70;10.05;;;7.60;99.90;;;;;;5019639;28;20049;-62
2021/12/15 12:10:13;;;;;;;11.40;9.63;;;7.60;99.90;;;;;;5014747;28;20087;-62
2021/12/15 12:12:51;;;;;;;12.18;10.40;;;7.70;99.90;;;;;;5019225;28;20112;-63
2021/12/15 12:15:27;;;;;;;13.40;9.63;;;7.70;99.90;;;;;;5019513;28;20025;-63
2021/12/15 12:17:55;;;;;;;13.25;10.57;;;7.60;99.90;;;;;;5020094;28;20133;-62
2021/12/15 12:20:26;;;;;;;14.60;10.82;;;7.60;99.90;;;;;;5020005;28;20037;-62
2021/12/15 12:22:53;;;;;;;20.73;11.50;;;7.50;99.90;;;;;;5020731;28;20033;-62
2021/12/15 12:25:23;;;;;;;19.33;11.55;;;7.50;99.90;;;;;;5018985;28;20030;-62
2021/12/15 12:27:51;;;;;;;15.23;11.43;;;7.40;99.90;;;;;;5013956;28;20616;-62
2021/12/15 12:30:23;;;;;;;12.75;11.38;;;7.40;99.90;;;;;;5019142;28;21032;-62
2021/12/15 12:32:49;;;;;;;;;;;7.30;99.90;;;;;;5021990;28;20440;-62
2021/12/15 12:35:22;;;;;;;18.10;11.48;;;7.30;99.90;;;;;;5020407;28;19924;-62
2021/12/15 12:38:03;;;;;;;16.00;11.43;;;7.30;99.90;;;;;;5020719;28;20397;-63
2021/12/15 12:40:33;;;;;;;16.35;12.00;;;7.20;99.90;;;;;;5021673;28;20038;-62
2021/12/15 12:42:59;;;;;;;16.58;12.23;;;7.20;99.90;;;;;;5020760;28;20030;-63
2021/12/15 12:45:37;;;;;;;18.40;11.90;;;7.30;99.90;;;;;;5019543;28;20486;-63
2021/12/15 12:59:29;;;;;;;17.35;12.48;;;7.10;99.90;;;;;;5021662;28;20099;-62
2021/12/15 13:01:56;;;;;;;18.77;12.43;;;7.10;99.90;;;;;;5016282;28;20018;-62
2021/12/15 13:04:39;;;;;;;16.67;12.00;;;7.10;99.90;;;;;;5017802;28;20030;-63
2021/12/15 13:07:04;;;;;;;11.80;9.98;;;7.10;99.90;;;;;;5016209;28;20138;-63
2021/12/15 13:09:43;;;;;;;12.90;9.77;;;7.00;99.90;;;;;;5015776;28;20105;-62
2021/12/15 13:12:26;;;;;;;13.80;10.32;;;7.00;99.90;;;;;;5019344;28;20034;-63
2021/12/15 13:14:55;;;;;;;20.85;11.07;;;7.00;99.90;;;;;;5017606;28;20060;-62
2021/12/15 13:17:26;;;;;;;17.38;13.18;;;7.00;99.90;;;;;;5019807;28;20094;-63
2021/12/15 13:19:54;;;;;;;14.60;10.60;;;7.00;99.90;;;;;;5022430;28;20397;-63
2021/12/15 13:30:51;;;;;;;17.05;12.45;;;7.00;99.90;;;;;;5019776;28;20056;-63
2021/12/15 13:33:33;;;;;;;19.48;13.07;;;6.90;99.90;;;;;;5017897;28;20022;-62
2021/12/15 13:36:06;;;;;;;17.85;12.48;;;6.90;99.90;;;;;;5018526;28;20032;-62
2021/12/15 13:38:46;;;;;;;21.05;12.45;;;7.00;99.90;;;;;;5017219;28;20022;-62
2021/12/15 13:41:41;;;;;;;17.65;11.68;;;7.00;99.90;;;;;;5016555;28;20030;-62
2021/12/15 13:44:25;;;;;;;15.15;10.57;;;7.00;99.90;;;;;;5021966;28;20112;-62
2021/12/15 13:47:07;;;;;;;16.02;10.63;;;7.00;99.90;;;;;;5019712;28;20030;-62
2021/12/15 13:49:58;;;;;;;18.05;11.68;;;7.10;99.90;;;;;;5010761;28;20161;-62
2021/12/15 13:52:39;;;;;;;13.77;9.85;;;7.10;99.90;;;;;;5017718;28;20551;-62
2021/12/15 13:55:30;;;;;;;14.35;11.82;;;7.10;99.90;;;;;;5013843;28;20038;-62
2021/12/15 13:57:58;;;;;;;;;;;7.00;99.90;;;;;;5019968;28;20026;-62
2021/12/15 14:00:29;;;;;;;13.88;10.73;;;7.00;99.90;;;;;;5017873;28;19932;-62
2021/12/15 14:02:54;;;;;;;17.45;12.43;;;7.00;99.90;;;;;;5020872;28;20137;-63
2021/12/15 14:05:26;;;;;;;21.33;11.88;;;7.00;99.90;;;;;;5020611;28;20053;-61
2021/12/15 14:07:59;;;;;;;23.15;12.95;;;7.00;99.90;;;;;;5019076;28;20453;-62
2021/12/15 14:10:25;;;;;;;21.52;12.38;;;7.00;99.90;;;;;;5022621;28;20388;-62
2021/12/15 14:12:57;;;;;;;18.30;12.30;;;7.00;99.90;;;;;;5018175;28;20040;-62
2021/12/15 14:15:25;;;;;;;18.77;12.27;;;7.00;99.90;;;;;;5017713;28;20108;-62
2021/12/15 14:17:59;;;;;;;17.38;12.50;;;6.90;99.90;;;;;;5015994;28;20079;-62
2021/12/15 14:20:27;;;;;;;24.10;11.90;;;6.80;99.90;;;;;;5014135;28;20033;-62
2021/12/15 14:22:56;;;;;;;15.40;11.25;;;6.80;99.90;;;;;;5020890;28;20465;-61
2021/12/15 14:25:22;;;;;;;19.45;11.43;;;6.80;99.90;;;;;;5018980;28;20703;-62